Time;durP1;ratioP1;P1;durP2;ratioP2;P2;SDS_P1;SDS_P2;PMS_P1;PMS_P2;Temp;Humidity;BMP_temperature;BMP_pressure;BME280_temperature;BME280_humidity;BME280_pressure;Samples;Min_cycle;Max_cycle;Signal;HPM_P1;HPM_P2
2021/12/12 00:02:30;;;;;;;36.77;23.40;;;0.00;99.90;;;;;;5033965;28;20195;-73
2021/12/12 00:04:56;;;;;;;37.23;22.63;;;0.00;99.90;;;;;;5022800;28;21033;-74
2021/12/12 00:07:27;;;;;;;41.90;25.73;;;0.00;99.90;;;;;;5035888;28;20535;-72
2021/12/12 00:09:56;;;;;;;40.00;22.40;;;-0.10;99.90;;;;;;5022824;28;20224;-74
2021/12/12 00:12:30;;;;;;;36.10;23.50;;;0.00;99.90;;;;;;5032029;28;20180;-74
2021/12/12 00:14:56;;;;;;;40.70;23.80;;;0.00;99.90;;;;;;5025805;28;20229;-73
2021/12/12 00:17:23;;;;;;;34.53;23.03;;;0.00;99.90;;;;;;5024857;28;20174;-72
2021/12/12 00:19:49;;;;;;;39.43;24.93;;;-0.10;99.90;;;;;;5056536;28;20194;-75
2021/12/12 00:22:18;;;;;;;36.70;22.37;;;-0.10;99.90;;;;;;5054363;28;20179;-73
2021/12/12 00:24:45;;;;;;;35.37;22.20;;;-0.20;99.90;;;;;;5047926;28;20678;-73
2021/12/12 00:27:11;;;;;;;37.30;22.90;;;0.00;99.90;;;;;;5044615;28;20222;-73
2021/12/12 00:29:38;;;;;;;36.40;22.33;;;-0.10;99.90;;;;;;5034532;28;20204;-72
2021/12/12 00:32:10;;;;;;;37.53;24.17;;;0.10;99.90;;;;;;5033884;28;20210;-72
2021/12/12 00:34:39;;;;;;;38.13;24.37;;;0.10;99.90;;;;;;5039923;28;20218;-73
2021/12/12 00:37:08;;;;;;;34.10;23.27;;;0.10;99.90;;;;;;5037645;28;20186;-73
2021/12/12 00:39:36;;;;;;;35.20;20.57;;;0.00;99.90;;;;;;5045852;28;20405;-72
2021/12/12 00:42:05;;;;;;;30.97;20.27;;;0.00;99.90;;;;;;5024765;28;20193;-72
2021/12/12 00:44:31;;;;;;;29.60;21.10;;;0.00;99.90;;;;;;5050885;28;20206;-72
2021/12/12 00:46:59;;;;;;;29.07;20.40;;;0.10;99.90;;;;;;5031688;28;20340;-72
2021/12/12 00:49:26;;;;;;;32.17;21.03;;;0.20;99.90;;;;;;5051680;28;20253;-72
2021/12/12 00:51:51;;;;;;;35.33;21.77;;;0.20;99.90;;;;;;5039863;28;20207;-72
2021/12/12 00:54:18;;;;;;;28.67;20.13;;;0.20;99.90;;;;;;5036809;28;20214;-72
2021/12/12 00:56:44;;;;;;;31.10;22.17;;;0.20;99.90;;;;;;5032979;28;20228;-73
2021/12/12 00:59:12;;;;;;;32.87;21.30;;;0.10;99.90;;;;;;5053879;28;20554;-72
2021/12/12 01:01:45;;;;;;;29.70;22.03;;;0.10;99.90;;;;;;5033732;28;20355;-72
2021/12/12 01:04:18;;;;;;;33.57;22.17;;;0.10;99.90;;;;;;5024605;28;20253;-72
2021/12/12 01:06:47;;;;;;;27.87;20.13;;;0.20;99.90;;;;;;5026601;28;20201;-72
2021/12/12 01:09:20;;;;;;;29.57;20.90;;;0.20;99.90;;;;;;5064858;28;20220;-72
2021/12/12 01:11:50;;;;;;;31.77;21.43;;;0.10;99.90;;;;;;5026628;28;20204;-72
2021/12/12 01:14:20;;;;;;;33.03;21.47;;;0.00;99.90;;;;;;5027901;28;20324;-72
2021/12/12 01:16:55;;;;;;;33.43;21.93;;;0.00;99.90;;;;;;5041495;28;20539;-71
2021/12/12 01:19:31;;;;;;;29.43;21.20;;;0.00;99.90;;;;;;5027792;28;20735;-71
2021/12/12 01:22:02;;;;;;;29.63;19.47;;;0.00;99.90;;;;;;5026058;28;20583;-71
2021/12/12 01:24:32;;;;;;;32.70;20.40;;;0.00;99.90;;;;;;5039962;28;20197;-71
2021/12/12 01:27:00;;;;;;;33.50;20.40;;;0.00;99.90;;;;;;5030753;28;20259;-71
2021/12/12 01:29:26;;;;;;;30.90;20.53;;;0.00;99.90;;;;;;5058588;28;20197;-71
2021/12/12 01:31:54;;;;;;;31.20;20.03;;;0.00;99.90;;;;;;5031229;28;20218;-71
2021/12/12 01:34:24;;;;;;;34.17;21.70;;;0.00;99.90;;;;;;5055676;28;20208;-70
2021/12/12 01:37:22;;;;;;;30.23;21.60;;;0.10;99.90;;;;;;5026394;28;20238;-71
2021/12/12 01:39:48;;;;;;;34.30;20.87;;;0.00;99.90;;;;;;5026467;28;20180;-72
2021/12/12 01:42:23;;;;;;;31.27;20.20;;;0.00;99.90;;;;;;5034364;28;20636;-73
2021/12/12 01:45:01;;;;;;;29.70;20.47;;;0.00;99.90;;;;;;5057322;28;20198;-72
2021/12/12 01:47:32;;;;;;;32.63;19.97;;;0.00;99.90;;;;;;5035409;28;20636;-73
2021/12/12 01:50:03;;;;;;;30.10;19.53;;;-0.10;99.90;;;;;;5043267;28;20286;-73
2021/12/12 01:52:31;;;;;;;33.33;19.90;;;0.00;99.90;;;;;;5028575;28;20192;-69
2021/12/12 01:55:07;;;;;;;31.47;21.00;;;-0.10;99.90;;;;;;5047117;28;20220;-72
2021/12/12 01:57:35;;;;;;;28.73;19.70;;;-0.10;99.90;;;;;;5027153;28;20565;-72
2021/12/12 02:00:28;;;;;;;28.77;19.67;;;-0.10;99.90;;;;;;5041708;28;20205;-65
2021/12/12 02:02:56;;;;;;;31.23;20.20;;;-0.10;99.90;;;;;;5041982;28;20663;-70
2021/12/12 02:05:23;;;;;;;29.93;19.53;;;-0.10;99.90;;;;;;5044242;28;20213;-65
2021/12/12 02:07:57;;;;;;;31.73;21.33;;;0.00;99.90;;;;;;5040142;28;20191;-65
2021/12/12 02:10:31;;;;;;;27.60;19.33;;;0.00;99.90;;;;;;5030036;28;20259;-65
2021/12/12 02:13:04;;;;;;;28.53;21.50;;;0.00;99.90;;;;;;5033304;28;20265;-66
2021/12/12 02:15:32;;;;;;;30.37;19.60;;;0.10;99.90;;;;;;5037297;28;20232;-67
2021/12/12 02:17:57;;;;;;;27.53;19.53;;;0.10;99.90;;;;;;5036823;28;20977;-66
2021/12/12 02:20:38;;;;;;;26.27;18.73;;;0.00;99.90;;;;;;5033005;28;20202;-66
2021/12/12 02:23:39;;;;;;;28.83;21.13;;;0.10;99.90;;;;;;5034697;28;20292;-67
2021/12/12 02:37:01;;;;;;;29.40;19.50;;;0.10;99.90;;;;;;5032927;28;20634;-69
2021/12/12 02:39:27;;;;;;;28.20;19.83;;;0.00;99.90;;;;;;5039257;28;20214;-64
2021/12/12 02:41:59;;;;;;;28.70;19.00;;;-0.10;99.90;;;;;;5042719;28;20229;-64
2021/12/12 02:44:31;;;;;;;25.93;20.00;;;-0.10;99.90;;;;;;5024617;28;20359;-64
2021/12/12 02:47:08;;;;;;;26.17;19.97;;;-0.20;99.90;;;;;;5026487;28;20287;-64
2021/12/12 02:49:52;;;;;;;30.20;19.50;;;-0.30;99.90;;;;;;5047150;28;20260;-64
2021/12/12 02:52:23;;;;;;;31.77;20.10;;;-0.30;99.90;;;;;;5031194;28;20276;-64
2021/12/12 02:54:48;;;;;;;27.47;19.53;;;-0.20;99.90;;;;;;5035380;28;20223;-64
2021/12/12 02:57:16;;;;;;;31.73;19.37;;;-0.30;99.90;;;;;;5059182;28;20620;-64
2021/12/12 02:59:46;;;;;;;27.27;18.43;;;-0.30;99.90;;;;;;5037621;28;20204;-65
2021/12/12 03:02:16;;;;;;;30.03;19.87;;;-0.30;99.90;;;;;;5032545;28;20202;-64
2021/12/12 03:04:42;;;;;;;30.63;20.87;;;-0.30;99.90;;;;;;5035812;28;20288;-64
2021/12/12 03:07:10;;;;;;;27.33;20.37;;;-0.30;99.90;;;;;;5039942;28;20189;-64
2021/12/12 03:09:46;;;;;;;29.03;20.13;;;-0.30;99.90;;;;;;5031124;28;20304;-65
2021/12/12 03:12:20;;;;;;;33.00;21.33;;;-0.40;99.90;;;;;;5030601;28;20222;-65
2021/12/12 03:14:47;;;;;;;26.17;20.00;;;-0.30;99.90;;;;;;5033893;28;20352;-66
2021/12/12 03:17:19;;;;;;;27.73;19.13;;;-0.40;99.90;;;;;;5033160;28;20188;-66
2021/12/12 03:19:48;;;;;;;24.30;19.13;;;-0.30;99.90;;;;;;5031298;28;20205;-65
2021/12/12 03:22:15;;;;;;;29.60;18.93;;;-0.30;99.90;;;;;;5035188;28;20269;-65
2021/12/12 03:24:41;;;;;;;26.67;20.03;;;-0.30;99.90;;;;;;5031925;28;20201;-65
2021/12/12 03:27:07;;;;;;;29.83;19.23;;;-0.20;99.90;;;;;;5038066;28;20626;-64
2021/12/12 03:29:33;;;;;;;28.67;20.67;;;-0.20;99.90;;;;;;5035201;28;20200;-63
2021/12/12 03:32:10;;;;;;;25.90;18.23;;;-0.20;99.90;;;;;;5035449;28;20204;-64
2021/12/12 03:34:40;;;;;;;28.23;20.03;;;-0.20;99.90;;;;;;5032398;28;20243;-72
2021/12/12 03:37:08;;;;;;;29.70;18.57;;;-0.20;99.90;;;;;;5038118;28;20181;-72
2021/12/12 03:39:39;;;;;;;28.17;20.10;;;-0.20;99.90;;;;;;5051842;28;20208;-72
2021/12/12 03:42:10;;;;;;;28.20;19.30;;;-0.20;99.90;;;;;;5038103;28;20202;-72
2021/12/12 03:44:38;;;;;;;27.70;18.57;;;-0.20;99.90;;;;;;5041750;28;20184;-71
2021/12/12 03:47:22;;;;;;;32.30;19.43;;;-0.10;99.90;;;;;;5033343;28;20250;-71
2021/12/12 03:49:49;;;;;;;29.40;19.43;;;-0.10;99.90;;;;;;5045698;28;20197;-73
2021/12/12 03:52:16;;;;;;;28.73;19.17;;;-0.10;99.90;;;;;;5026923;28;20285;-70
2021/12/12 03:54:43;;;;;;;25.60;18.60;;;-0.10;99.90;;;;;;5057685;28;20253;-71
2021/12/12 03:57:09;;;;;;;30.13;18.73;;;0.00;99.90;;;;;;5037024;28;20746;-71
2021/12/12 03:59:35;;;;;;;33.47;20.40;;;0.10;99.90;;;;;;5050030;28;20296;-72
2021/12/12 04:02:01;;;;;;;30.03;19.17;;;0.00;99.90;;;;;;5032038;28;20193;-71
2021/12/12 04:04:41;;;;;;;28.90;19.77;;;0.10;99.90;;;;;;5052351;28;20208;-71
2021/12/12 04:07:12;;;;;;;26.40;17.67;;;0.00;99.90;;;;;;5028478;28;20212;-71
2021/12/12 04:09:38;;;;;;;26.67;18.50;;;0.00;99.90;;;;;;5024879;28;20193;-71
2021/12/12 04:12:07;;;;;;;29.37;19.20;;;0.00;99.90;;;;;;5036234;28;20680;-72
2021/12/12 04:14:33;;;;;;;25.63;17.93;;;0.00;99.90;;;;;;5036967;28;20716;-70
2021/12/12 04:17:04;;;;;;;28.63;18.33;;;0.00;99.90;;;;;;5033574;28;20262;-70
2021/12/12 04:19:30;;;;;;;29.20;19.03;;;0.10;99.90;;;;;;5029334;28;20654;-71
2021/12/12 04:21:55;;;;;;;23.70;17.30;;;0.10;99.90;;;;;;5035948;28;20234;-72
2021/12/12 04:24:29;;;;;;;27.13;19.67;;;0.00;99.90;;;;;;5036146;28;20218;-71
2021/12/12 04:26:56;;;;;;;28.90;17.80;;;0.10;99.90;;;;;;5032751;28;20198;-71
2021/12/12 04:29:27;;;;;;;26.53;18.93;;;0.20;99.90;;;;;;5037509;28;20695;-72
2021/12/12 04:31:57;;;;;;;24.93;18.43;;;0.20;99.90;;;;;;5028413;28;20605;-73
2021/12/12 04:34:26;;;;;;;29.17;17.80;;;0.20;99.90;;;;;;5033741;28;20301;-74
2021/12/12 04:36:55;;;;;;;29.43;18.10;;;0.30;99.90;;;;;;5033825;28;20206;-71
2021/12/12 04:39:28;;;;;;;25.77;17.57;;;0.50;99.90;;;;;;5033274;28;20205;-73
2021/12/12 04:42:11;;;;;;;27.10;19.13;;;0.50;99.90;;;;;;5037064;28;20208;-71
2021/12/12 04:44:38;;;;;;;31.60;18.17;;;0.50;99.90;;;;;;5031496;28;20216;-72
2021/12/12 04:50:36;;;;;;;30.43;19.13;;;0.50;99.90;;;;;;5040138;28;20308;-70
2021/12/12 04:53:14;;;;;;;30.30;18.73;;;0.50;99.90;;;;;;5038132;28;20217;-71
2021/12/12 04:55:42;;;;;;;23.30;17.60;;;0.50;99.90;;;;;;5033546;28;20283;-71
2021/12/12 04:58:43;;;;;;;31.57;17.27;;;0.50;99.90;;;;;;5037305;28;20243;-72
2021/12/12 05:01:41;;;;;;;25.10;19.17;;;0.70;99.90;;;;;;5032390;28;20291;-71
2021/12/12 05:04:14;;;;;;;27.27;17.93;;;0.90;99.90;;;;;;5034213;28;20338;-72
2021/12/12 05:06:57;;;;;;;27.43;19.43;;;0.80;99.90;;;;;;5034331;28;20284;-72
2021/12/12 05:09:46;;;;;;;26.33;19.60;;;0.90;99.90;;;;;;5037404;28;20212;-71
2021/12/12 05:12:30;;;;;;;30.33;18.93;;;0.90;99.90;;;;;;5036051;28;20238;-70
2021/12/12 05:15:00;;;;;;;26.47;19.00;;;0.80;99.90;;;;;;5038211;28;20239;-71
2021/12/12 05:17:38;;;;;;;27.60;20.10;;;0.90;99.90;;;;;;5036172;28;20200;-71
2021/12/12 05:20:10;;;;;;;28.63;18.23;;;1.10;99.90;;;;;;5028092;28;20193;-74
2021/12/12 05:22:47;;;;;;;33.60;20.30;;;1.00;99.90;;;;;;5039289;28;20188;-70
2021/12/12 05:25:19;;;;;;;30.73;18.60;;;1.00;99.90;;;;;;5058242;28;20628;-69
2021/12/12 05:27:47;;;;;;;26.60;18.73;;;1.00;99.90;;;;;;5043407;28;20555;-71
2021/12/12 05:30:24;;;;;;;29.63;19.40;;;1.00;99.90;;;;;;5055051;28;20240;-71
2021/12/12 05:32:50;;;;;;;34.33;20.43;;;1.00;99.90;;;;;;5040862;28;20196;-71
2021/12/12 05:35:20;;;;;;;34.87;19.97;;;1.00;99.90;;;;;;5046459;28;20226;-72
2021/12/12 05:37:52;;;;;;;33.43;21.00;;;1.10;99.90;;;;;;5038769;28;20186;-72
2021/12/12 05:40:20;;;;;;;29.93;20.27;;;1.10;99.90;;;;;;5054684;28;20200;-64
2021/12/12 05:42:46;;;;;;;30.27;18.80;;;1.00;99.90;;;;;;5042852;28;20171;-63
2021/12/12 05:45:13;;;;;;;30.03;19.03;;;1.10;99.90;;;;;;5040735;28;20252;-63
2021/12/12 05:47:40;;;;;;;26.57;17.43;;;1.10;99.90;;;;;;5037509;28;20176;-65
2021/12/12 05:50:08;;;;;;;32.20;19.93;;;1.00;99.90;;;;;;5034051;28;20215;-65
2021/12/12 05:52:34;;;;;;;32.53;18.93;;;0.90;99.90;;;;;;5036493;28;20196;-64
2021/12/12 05:55:03;;;;;;;31.93;19.17;;;0.90;99.90;;;;;;5037171;28;20202;-66
2021/12/12 05:57:30;;;;;;;26.93;19.53;;;0.90;99.90;;;;;;5035603;28;20317;-66
2021/12/12 05:59:57;;;;;;;25.80;17.37;;;0.90;99.90;;;;;;5039332;28;20690;-66
2021/12/12 06:02:24;;;;;;;28.77;18.53;;;0.90;99.90;;;;;;5035403;28;20205;-66
2021/12/12 06:04:50;;;;;;;25.87;18.00;;;0.90;99.90;;;;;;5035934;28;20833;-64
2021/12/12 06:07:20;;;;;;;25.20;17.83;;;0.80;99.90;;;;;;5035957;28;20210;-65
2021/12/12 06:09:47;;;;;;;26.50;17.63;;;0.90;99.90;;;;;;5040792;28;20602;-65
2021/12/12 06:12:14;;;;;;;24.10;17.73;;;0.80;99.90;;;;;;5031818;28;20240;-65
2021/12/12 06:14:40;;;;;;;31.33;19.10;;;0.80;99.90;;;;;;5044083;28;20239;-65
2021/12/12 06:17:12;;;;;;;23.83;17.67;;;0.80;99.90;;;;;;5035159;28;20199;-64
2021/12/12 06:19:40;;;;;;;26.37;18.60;;;0.80;99.90;;;;;;5034471;28;20225;-65
2021/12/12 06:22:06;;;;;;;23.30;18.07;;;0.80;99.90;;;;;;5035020;28;20186;-65
2021/12/12 06:24:33;;;;;;;25.00;16.73;;;0.70;99.90;;;;;;5037776;28;20198;-66
2021/12/12 06:27:12;;;;;;;25.00;17.33;;;0.70;99.90;;;;;;5034080;28;20333;-65
2021/12/12 06:29:38;;;;;;;27.03;18.23;;;0.70;99.90;;;;;;5043169;28;20915;-64
2021/12/12 06:32:05;;;;;;;26.67;18.33;;;0.60;99.90;;;;;;5035835;28;20202;-64
2021/12/12 06:34:31;;;;;;;27.70;18.27;;;0.60;99.90;;;;;;5034961;28;20581;-64
2021/12/12 06:36:56;;;;;;;26.73;17.53;;;0.60;99.90;;;;;;5042277;28;20205;-64
2021/12/12 06:39:23;;;;;;;20.77;16.37;;;0.60;99.90;;;;;;5046568;28;20197;-64
2021/12/12 06:41:49;;;;;;;22.60;16.80;;;0.60;99.90;;;;;;5034842;28;20195;-64
2021/12/12 06:44:16;;;;;;;27.77;18.87;;;0.60;99.90;;;;;;5054377;28;20192;-64
2021/12/12 06:46:42;;;;;;;24.47;16.70;;;0.70;99.90;;;;;;5042043;28;20619;-63
2021/12/12 06:49:13;;;;;;;24.87;17.67;;;0.70;99.90;;;;;;5054989;28;20230;-63
2021/12/12 06:51:42;;;;;;;26.17;18.53;;;0.70;99.90;;;;;;5037083;28;20675;-65
2021/12/12 06:54:08;;;;;;;25.93;17.73;;;0.70;99.90;;;;;;5060155;28;20286;-65
2021/12/12 06:56:34;;;;;;;29.13;17.90;;;0.70;99.90;;;;;;5037210;28;20285;-65
2021/12/12 06:59:02;;;;;;;21.87;16.67;;;0.60;99.90;;;;;;5065079;28;20386;-65
2021/12/12 07:01:31;;;;;;;22.37;16.57;;;0.60;99.90;;;;;;5046652;28;20570;-65
2021/12/12 07:03:57;;;;;;;24.07;17.40;;;0.60;99.90;;;;;;5057332;28;20199;-65
2021/12/12 07:06:26;;;;;;;26.87;18.50;;;0.60;99.90;;;;;;5033767;28;20203;-65
2021/12/12 07:08:52;;;;;;;25.03;17.17;;;0.70;99.90;;;;;;5062005;28;20274;-65
2021/12/12 07:11:22;;;;;;;25.10;17.70;;;0.70;99.90;;;;;;5040451;28;20198;-64
2021/12/12 07:13:49;;;;;;;29.43;18.93;;;0.60;99.90;;;;;;5047368;28;20685;-65
2021/12/12 07:16:15;;;;;;;23.80;17.40;;;0.70;99.90;;;;;;5040425;28;20232;-64
2021/12/12 07:18:42;;;;;;;31.00;17.90;;;0.60;99.90;;;;;;5050394;28;20246;-64
2021/12/12 07:21:10;;;;;;;24.67;16.57;;;0.70;99.90;;;;;;5038022;28;20722;-64
2021/12/12 07:23:39;;;;;;;25.90;17.20;;;0.70;99.90;;;;;;5040604;28;20195;-65
2021/12/12 07:26:07;;;;;;;24.30;17.90;;;0.70;99.90;;;;;;5050646;28;20674;-66
2021/12/12 07:28:34;;;;;;;28.03;18.50;;;0.70;99.90;;;;;;5046435;28;20201;-66
2021/12/12 07:31:09;;;;;;;26.57;17.90;;;0.80;99.90;;;;;;5043932;28;20886;-65
2021/12/12 07:33:36;;;;;;;29.60;18.57;;;0.80;99.90;;;;;;5026359;28;20224;-65
2021/12/12 07:36:06;;;;;;;25.37;18.20;;;0.80;99.90;;;;;;5044051;28;20269;-64
2021/12/12 07:38:33;;;;;;;25.90;19.10;;;0.80;99.90;;;;;;5060615;28;20193;-63
2021/12/12 07:41:00;;;;;;;22.13;17.63;;;0.80;99.90;;;;;;5050211;28;20203;-62
2021/12/12 07:43:29;;;;;;;28.63;17.47;;;0.90;99.90;;;;;;5048444;28;20187;-63
2021/12/12 07:45:55;;;;;;;25.63;19.23;;;0.80;99.90;;;;;;5054418;28;20492;-64
2021/12/12 07:48:21;;;;;;;27.60;19.00;;;0.80;99.90;;;;;;5052907;28;20201;-64
2021/12/12 07:50:48;;;;;;;25.57;17.87;;;0.80;99.90;;;;;;5047559;28;20205;-63
2021/12/12 07:53:14;;;;;;;25.63;17.83;;;0.80;99.90;;;;;;5045686;28;20184;-63
2021/12/12 07:55:40;;;;;;;26.43;18.57;;;0.80;99.90;;;;;;5037796;28;20741;-63
2021/12/12 07:58:12;;;;;;;27.30;19.07;;;0.90;99.90;;;;;;5035918;28;20205;-64
2021/12/12 08:00:40;;;;;;;23.13;17.90;;;0.90;99.90;;;;;;5023827;28;20201;-64
2021/12/12 08:03:06;;;;;;;26.10;17.97;;;1.00;99.90;;;;;;5041977;28;20223;-64
2021/12/12 08:05:34;;;;;;;26.87;17.67;;;1.10;99.90;;;;;;5051630;28;20259;-64
2021/12/12 08:08:04;;;;;;;29.30;18.83;;;1.00;99.90;;;;;;5042360;28;20228;-65
2021/12/12 08:10:30;;;;;;;27.13;19.03;;;1.00;99.90;;;;;;5053012;28;20210;-64
2021/12/12 08:12:57;;;;;;;28.30;18.17;;;1.00;99.90;;;;;;5037704;28;20271;-64
2021/12/12 08:15:24;;;;;;;28.80;18.67;;;1.00;99.90;;;;;;5045921;28;20226;-64
2021/12/12 08:17:50;;;;;;;24.33;18.47;;;1.00;99.90;;;;;;5047375;28;20561;-65
2021/12/12 08:20:17;;;;;;;30.50;19.37;;;1.00;99.90;;;;;;5055041;28;20257;-65
2021/12/12 08:22:44;;;;;;;27.63;18.30;;;1.00;99.90;;;;;;5039839;28;20181;-65
2021/12/12 08:25:12;;;;;;;23.63;18.37;;;1.10;99.90;;;;;;5040354;28;20206;-65
2021/12/12 08:27:39;;;;;;;29.00;18.10;;;1.10;99.90;;;;;;5035334;28;20668;-66
2021/12/12 08:30:05;;;;;;;27.57;18.27;;;1.20;99.90;;;;;;5047683;28;20277;-66
2021/12/12 08:32:31;;;;;;;28.07;19.27;;;1.20;99.90;;;;;;5031997;28;20549;-64
2021/12/12 08:34:56;;;;;;;29.40;18.37;;;1.20;99.90;;;;;;5054622;28;20256;-64
2021/12/12 08:37:22;;;;;;;27.80;19.17;;;1.30;99.90;;;;;;5033041;28;20184;-65
2021/12/12 08:39:48;;;;;;;24.80;17.73;;;1.40;99.90;;;;;;5047674;28;20191;-66
2021/12/12 08:42:14;;;;;;;31.73;19.00;;;1.30;99.90;;;;;;5034571;28;20199;-66
2021/12/12 08:44:40;;;;;;;22.67;17.03;;;1.30;99.90;;;;;;5043792;28;20600;-66
2021/12/12 08:47:09;;;;;;;26.80;17.67;;;1.40;99.90;;;;;;5037836;28;20207;-65
2021/12/12 08:49:38;;;;;;;28.17;18.10;;;1.40;99.90;;;;;;5049034;28;20232;-65
2021/12/12 08:52:16;;;;;;;29.27;20.37;;;1.40;99.90;;;;;;5034856;28;20273;-65
2021/12/12 08:54:44;;;;;;;28.27;18.77;;;1.50;99.90;;;;;;5024950;28;20222;-64
2021/12/12 08:57:30;;;;;;;29.97;19.33;;;1.50;99.90;;;;;;5026099;28;20211;-64
2021/12/12 08:59:57;;;;;;;24.00;18.93;;;1.50;99.90;;;;;;5023773;28;20195;-64
2021/12/12 09:02:25;;;;;;;28.17;18.47;;;1.60;99.90;;;;;;5036927;28;20243;-65
2021/12/12 09:04:59;;;;;;;28.07;17.87;;;1.60;99.90;;;;;;5064275;28;20238;-65
2021/12/12 09:07:35;;;;;;;29.67;17.80;;;1.70;99.90;;;;;;5041252;28;20195;-64
2021/12/12 09:10:08;;;;;;;30.23;19.33;;;1.70;99.90;;;;;;5042852;28;20245;-65
2021/12/12 09:12:41;;;;;;;25.63;18.33;;;1.80;99.90;;;;;;5032921;28;20193;-65
2021/12/12 09:15:17;;;;;;;23.20;17.23;;;1.80;99.90;;;;;;5030146;28;20229;-67
2021/12/12 09:17:50;;;;;;;25.80;18.47;;;1.70;99.90;;;;;;5035522;28;20184;-65
2021/12/12 09:20:34;;;;;;;25.07;16.87;;;1.70;99.90;;;;;;5026336;28;20209;-65
2021/12/12 09:23:11;;;;;;;29.60;19.03;;;1.70;99.90;;;;;;5032320;28;20544;-66
2021/12/12 09:25:50;;;;;;;24.40;17.73;;;1.80;99.90;;;;;;5028750;28;20226;-64
2021/12/12 09:28:40;;;;;;;25.17;18.27;;;1.90;99.90;;;;;;5035361;28;20189;-65
2021/12/12 09:31:10;;;;;;;26.80;18.20;;;2.00;99.90;;;;;;5025481;28;20667;-65
2021/12/12 09:33:50;;;;;;;32.13;20.30;;;1.90;99.90;;;;;;5048770;28;20241;-65
2021/12/12 09:36:24;;;;;;;29.37;18.97;;;2.00;99.90;;;;;;5027011;28;20215;-65
2021/12/12 09:39:05;;;;;;;27.70;19.23;;;1.90;99.90;;;;;;5028244;28;20189;-65
2021/12/12 09:41:42;;;;;;;29.73;19.40;;;1.90;99.90;;;;;;5046422;28;20194;-66
2021/12/12 09:44:48;;;;;;;29.30;19.27;;;1.90;99.90;;;;;;5043740;28;20193;-65
2021/12/12 09:48:25;;;;;;;26.97;18.33;;;1.90;99.90;;;;;;5026345;28;20211;-65
2021/12/12 09:51:14;;;;;;;28.70;19.03;;;2.00;99.90;;;;;;5026139;28;20240;-64
2021/12/12 09:54:07;;;;;;;27.47;18.50;;;2.00;99.90;;;;;;5060997;28;20197;-65
2021/12/12 09:57:31;;;;;;;31.93;19.80;;;2.00;99.90;;;;;;5027121;28;20230;-65
2021/12/12 10:00:06;;;;;;;23.73;17.17;;;2.00;99.90;;;;;;5047478;28;20219;-65
2021/12/12 10:03:08;;;;;;;25.97;18.43;;;2.00;99.90;;;;;;5060352;28;20786;-64
2021/12/12 10:05:52;;;;;;;29.03;19.50;;;2.00;99.90;;;;;;5052422;28;20495;-65
2021/12/12 10:08:30;;;;;;;30.90;20.27;;;2.00;99.90;;;;;;5067023;28;20192;-65
2021/12/12 10:11:09;;;;;;;30.43;18.03;;;2.00;99.90;;;;;;5025987;28;20207;-65
2021/12/12 10:13:56;;;;;;;26.43;18.40;;;2.10;99.90;;;;;;5041670;28;20191;-64
2021/12/12 10:16:36;;;;;;;24.53;17.47;;;2.10;99.90;;;;;;5029114;28;20741;-64
2021/12/12 10:19:19;;;;;;;28.87;19.17;;;2.20;99.90;;;;;;5036483;28;20187;-64
2021/12/12 10:22:16;;;;;;;32.57;20.93;;;2.30;99.90;;;;;;5025767;28;20204;-64
2021/12/12 10:24:51;;;;;;;27.53;19.90;;;2.30;99.90;;;;;;5045547;28;20195;-66
2021/12/12 10:27:46;;;;;;;28.17;18.20;;;2.40;99.90;;;;;;5050367;28;20213;-64
2021/12/12 10:30:14;;;;;;;34.90;20.40;;;2.30;99.90;;;;;;5043647;28;20753;-63
2021/12/12 10:33:13;;;;;;;33.43;19.10;;;2.40;99.90;;;;;;5042048;28;20190;-65
2021/12/12 10:35:51;;;;;;;27.10;17.83;;;2.40;99.90;;;;;;5031381;28;20213;-64
2021/12/12 10:38:21;;;;;;;22.97;17.10;;;2.50;99.90;;;;;;5040499;28;20188;-64
2021/12/12 10:40:59;;;;;;;24.37;17.57;;;2.50;99.90;;;;;;5051375;28;20700;-64
2021/12/12 10:43:35;;;;;;;30.00;17.90;;;2.50;99.90;;;;;;5046997;28;20192;-63
2021/12/12 10:46:12;;;;;;;25.20;18.33;;;2.70;99.90;;;;;;5026189;28;20696;-64
2021/12/12 10:48:45;;;;;;;31.50;19.47;;;2.80;99.90;;;;;;5027138;28;20208;-64
2021/12/12 10:51:16;;;;;;;25.97;18.37;;;2.70;99.90;;;;;;5027275;28;20603;-65
2021/12/12 10:54:06;;;;;;;25.70;18.07;;;2.80;99.90;;;;;;5026541;28;20199;-65
2021/12/12 10:57:00;;;;;;;31.90;19.70;;;2.80;99.90;;;;;;5032977;28;20215;-63
2021/12/12 10:59:42;;;;;;;29.70;17.73;;;2.70;99.90;;;;;;5026469;28;20201;-63
2021/12/12 11:02:12;;;;;;;24.77;18.50;;;2.70;99.90;;;;;;5030611;28;20242;-66
2021/12/12 11:04:51;;;;;;;26.60;18.47;;;2.70;99.90;;;;;;5056318;28;20194;-67
2021/12/12 11:07:24;;;;;;;25.13;18.10;;;2.80;99.90;;;;;;5032794;28;20238;-65
2021/12/12 11:10:11;;;;;;;26.87;20.10;;;2.80;99.90;;;;;;5026462;28;20190;-64
2021/12/12 11:12:57;;;;;;;28.17;19.37;;;2.90;99.90;;;;;;5045544;28;20193;-63
2021/12/12 11:15:56;;;;;;;28.17;18.37;;;2.80;99.90;;;;;;5037525;28;20560;-63
2021/12/12 11:18:41;;;;;;;27.40;18.07;;;2.70;99.90;;;;;;5029582;28;20213;-64
2021/12/12 11:21:18;;;;;;;29.87;18.93;;;2.80;99.90;;;;;;5026113;28;20211;-65
2021/12/12 11:23:57;;;;;;;26.53;16.80;;;2.80;99.90;;;;;;5034447;28;20186;-65
2021/12/12 11:26:37;;;;;;;25.73;16.67;;;2.80;99.90;;;;;;5039199;28;20290;-66
2021/12/12 11:29:09;;;;;;;27.83;18.90;;;2.80;99.90;;;;;;5046206;28;20307;-64
2021/12/12 11:31:41;;;;;;;27.73;18.27;;;2.80;99.90;;;;;;5024094;28;20620;-66
2021/12/12 11:34:08;;;;;;;28.37;19.73;;;2.80;99.90;;;;;;5027403;28;20269;-65
2021/12/12 11:36:49;;;;;;;29.70;18.73;;;2.90;99.90;;;;;;5037022;28;20202;-65
2021/12/12 11:39:29;;;;;;;23.90;17.00;;;2.80;99.90;;;;;;5026252;28;20597;-65
2021/12/12 11:42:10;;;;;;;29.67;19.33;;;2.80;99.90;;;;;;5024516;28;20203;-65
2021/12/12 11:44:52;;;;;;;27.17;19.30;;;2.90;99.90;;;;;;5032293;28;20190;-64
2021/12/12 11:47:43;;;;;;;29.03;18.70;;;3.00;99.90;;;;;;5034978;28;20253;-63
2021/12/12 11:50:22;;;;;;;25.67;18.00;;;3.00;99.90;;;;;;5025302;28;20246;-64
2021/12/12 11:53:36;;;;;;;27.10;18.10;;;3.00;99.90;;;;;;5033753;28;20661;-64
2021/12/12 11:56:17;;;;;;;28.43;19.63;;;2.90;99.90;;;;;;5033964;28;20214;-65
2021/12/12 11:59:05;;;;;;;24.90;17.67;;;2.90;99.90;;;;;;5044781;28;20559;-65
2021/12/12 12:01:49;;;;;;;26.27;17.73;;;2.90;99.90;;;;;;5035168;28;20205;-65
2021/12/12 12:05:08;;;;;;;27.53;17.53;;;3.00;99.90;;;;;;5025027;28;20233;-65
2021/12/12 12:08:00;;;;;;;27.47;18.83;;;3.00;99.90;;;;;;5042052;28;20240;-83
2021/12/12 12:11:11;;;;;;;26.47;17.63;;;2.90;99.90;;;;;;5006653;28;20212;-65
2021/12/12 12:13:55;;;;;;;28.80;18.57;;;2.90;99.90;;;;;;5035648;28;20198;-66
2021/12/12 12:16:28;;;;;;;28.77;18.23;;;2.90;99.90;;;;;;5028986;28;20288;-65
2021/12/12 12:19:18;;;;;;;28.07;18.27;;;3.00;99.90;;;;;;5034278;28;20553;-65
2021/12/12 12:22:02;;;;;;;28.17;19.20;;;3.00;99.90;;;;;;5031907;28;20203;-65
2021/12/12 12:24:41;;;;;;;26.50;17.70;;;3.20;99.90;;;;;;5035978;28;20390;-65
2021/12/12 12:27:14;;;;;;;26.80;17.83;;;3.30;99.90;;;;;;5041296;28;20305;-73
2021/12/12 12:30:20;;;;;;;26.07;18.57;;;3.50;99.90;;;;;;5027341;28;20654;-71
2021/12/12 12:33:13;;;;;;;30.40;17.97;;;3.70;99.90;;;;;;5031472;28;20197;-70
2021/12/12 12:36:16;;;;;;;23.77;16.83;;;3.80;99.90;;;;;;5036220;28;20222;-69
2021/12/12 12:39:22;;;;;;;29.70;18.67;;;3.70;99.90;;;;;;5036056;28;20243;-70
2021/12/12 12:42:25;;;;;;;26.57;18.70;;;3.80;99.90;;;;;;5032635;28;20201;-69
2021/12/12 12:45:23;;;;;;;24.73;17.00;;;3.80;99.90;;;;;;5038135;28;20779;-71
2021/12/12 12:48:13;;;;;;;22.93;15.40;;;3.60;99.90;;;;;;5034841;28;20285;-71
2021/12/12 12:51:02;;;;;;;23.60;15.83;;;3.70;99.90;;;;;;5028540;28;20271;-69
2021/12/12 12:54:03;;;;;;;25.10;17.47;;;3.60;99.90;;;;;;5029510;28;20210;-70
2021/12/12 12:57:09;;;;;;;24.67;15.90;;;3.60;99.90;;;;;;5029206;28;20873;-71
2021/12/12 12:59:54;;;;;;;25.47;16.10;;;3.50;99.90;;;;;;5038033;28;20194;-70
2021/12/12 13:02:50;;;;;;;26.50;18.13;;;3.50;99.90;;;;;;5025154;28;20511;-68
2021/12/12 13:05:35;;;;;;;23.47;16.60;;;3.50;99.90;;;;;;5045516;28;20264;-69
2021/12/12 13:08:33;;;;;;;20.90;14.93;;;3.50;99.90;;;;;;5048312;28;20208;-67
2021/12/12 13:11:01;;;;;;;24.00;14.83;;;3.30;99.90;;;;;;5038542;28;20670;-69
2021/12/12 13:13:42;;;;;;;23.23;16.37;;;3.30;99.90;;;;;;5041893;28;20215;-69
2021/12/12 13:16:44;;;;;;;24.53;15.30;;;3.50;99.90;;;;;;5032420;28;20701;-69
2021/12/12 13:19:31;;;;;;;22.03;14.50;;;3.40;99.90;;;;;;5040644;28;20748;-70
2021/12/12 13:22:08;;;;;;;19.17;14.47;;;3.50;99.90;;;;;;5042650;28;20203;-69
2021/12/12 13:25:09;;;;;;;24.67;15.13;;;3.50;99.90;;;;;;5033442;28;20359;-70
2021/12/12 13:30:43;;;;;;;20.50;14.07;;;3.60;99.90;;;;;;5031279;28;20218;-70
2021/12/12 13:33:41;;;;;;;20.60;13.73;;;3.60;99.90;;;;;;5040625;28;20277;-69